sensor_id;sensor_type;location;lat;lon;timestamp;P1;durP1;ratioP1;P2;durP2;ratioP2
13234;SDS011;6683;48.506;9.050;2023-08-31T00:00:00;1.83;;;1.33;;
13234;SDS011;6683;48.506;9.050;2023-08-31T00:03:04;2.20;;;1.30;;
13234;SDS011;6683;48.506;9.050;2023-08-31T00:06:08;4.60;;;1.60;;
13234;SDS011;6683;48.506;9.050;2023-08-31T00:09:10;3.27;;;1.33;;
13234;SDS011;6683;48.506;9.050;2023-08-31T00:12:12;2.03;;;1.60;;
13234;SDS011;6683;48.506;9.050;2023-08-31T00:15:14;1.67;;;1.30;;
13234;SDS011;6683;48.506;9.050;2023-08-31T00:18:17;1.10;;;1.03;;
13234;SDS011;6683;48.506;9.050;2023-08-31T00:21:22;1.77;;;1.30;;
13234;SDS011;6683;48.506;9.050;2023-08-31T00:24:24;2.87;;;1.47;;
13234;SDS011;6683;48.506;9.050;2023-08-31T00:27:30;2.80;;;1.50;;
13234;SDS011;6683;48.506;9.050;2023-08-31T00:30:32;1.80;;;1.50;;
13234;SDS011;6683;48.506;9.050;2023-08-31T00:33:34;1.60;;;1.50;;
13234;SDS011;6683;48.506;9.050;2023-08-31T00:36:40;2.20;;;1.67;;
13234;SDS011;6683;48.506;9.050;2023-08-31T00:39:42;1.40;;;1.30;;
13234;SDS011;6683;48.506;9.050;2023-08-31T00:42:45;1.70;;;1.50;;
13234;SDS011;6683;48.506;9.050;2023-08-31T00:45:48;4.27;;;1.33;;
13234;SDS011;6683;48.506;9.050;2023-08-31T00:48:54;1.70;;;1.47;;
13234;SDS011;6683;48.506;9.050;2023-08-31T00:51:58;1.80;;;1.50;;
13234;SDS011;6683;48.506;9.050;2023-08-31T00:55:00;1.53;;;1.43;;
13234;SDS011;6683;48.506;9.050;2023-08-31T00:58:05;1.60;;;1.50;;
13234;SDS011;6683;48.506;9.050;2023-08-31T01:01:09;1.57;;;1.47;;
13234;SDS011;6683;48.506;9.050;2023-08-31T01:04:21;1.80;;;1.33;;
13234;SDS011;6683;48.506;9.050;2023-08-31T01:11:00;3.10;;;1.50;;
13234;SDS011;6683;48.506;9.050;2023-08-31T01:14:15;2.97;;;1.33;;
13234;SDS011;6683;48.506;9.050;2023-08-31T01:17:19;1.40;;;1.30;;
13234;SDS011;6683;48.506;9.050;2023-08-31T01:20:26;1.70;;;1.50;;
13234;SDS011;6683;48.506;9.050;2023-08-31T01:23:51;2.20;;;1.30;;
13234;SDS011;6683;48.506;9.050;2023-08-31T01:26:54;1.63;;;1.53;;
13234;SDS011;6683;48.506;9.050;2023-08-31T01:29:57;1.80;;;1.50;;
13234;SDS011;6683;48.506;9.050;2023-08-31T01:32:59;1.00;;;1.00;;
13234;SDS011;6683;48.506;9.050;2023-08-31T01:36:02;1.50;;;1.30;;
13234;SDS011;6683;48.506;9.050;2023-08-31T01:39:14;1.40;;;1.30;;
13234;SDS011;6683;48.506;9.050;2023-08-31T01:42:22;2.17;;;1.50;;
13234;SDS011;6683;48.506;9.050;2023-08-31T01:45:27;1.60;;;1.27;;
13234;SDS011;6683;48.506;9.050;2023-08-31T01:48:29;1.10;;;1.00;;
13234;SDS011;6683;48.506;9.050;2023-08-31T01:51:33;2.30;;;1.30;;
13234;SDS011;6683;48.506;9.050;2023-08-31T01:54:36;4.37;;;1.40;;
13234;SDS011;6683;48.506;9.050;2023-08-31T01:57:38;1.30;;;1.20;;
13234;SDS011;6683;48.506;9.050;2023-08-31T02:00:40;1.50;;;1.17;;
13234;SDS011;6683;48.506;9.050;2023-08-31T02:03:44;2.13;;;1.40;;
13234;SDS011;6683;48.506;9.050;2023-08-31T02:06:47;1.40;;;1.30;;
13234;SDS011;6683;48.506;9.050;2023-08-31T02:09:50;1.67;;;1.33;;
13234;SDS011;6683;48.506;9.050;2023-08-31T02:12:52;2.47;;;1.30;;
13234;SDS011;6683;48.506;9.050;2023-08-31T02:15:54;1.30;;;1.20;;
13234;SDS011;6683;48.506;9.050;2023-08-31T02:18:57;1.73;;;1.50;;
13234;SDS011;6683;48.506;9.050;2023-08-31T02:21:59;1.60;;;1.27;;
13234;SDS011;6683;48.506;9.050;2023-08-31T02:25:03;1.57;;;1.47;;
13234;SDS011;6683;48.506;9.050;2023-08-31T02:28:06;1.53;;;1.20;;
13234;SDS011;6683;48.506;9.050;2023-08-31T02:31:09;1.70;;;1.20;;
13234;SDS011;6683;48.506;9.050;2023-08-31T02:34:12;1.60;;;1.30;;
13234;SDS011;6683;48.506;9.050;2023-08-31T02:37:14;1.50;;;1.40;;
13234;SDS011;6683;48.506;9.050;2023-08-31T02:40:17;1.43;;;1.33;;
13234;SDS011;6683;48.506;9.050;2023-08-31T02:43:21;2.13;;;1.40;;
13234;SDS011;6683;48.506;9.050;2023-08-31T02:46:23;2.13;;;1.40;;
13234;SDS011;6683;48.506;9.050;2023-08-31T02:49:26;2.23;;;1.10;;
13234;SDS011;6683;48.506;9.050;2023-08-31T02:52:28;1.80;;;1.50;;
13234;SDS011;6683;48.506;9.050;2023-08-31T02:55:33;1.53;;;1.43;;
13234;SDS011;6683;48.506;9.050;2023-08-31T02:58:35;1.33;;;1.20;;
13234;SDS011;6683;48.506;9.050;2023-08-31T03:01:37;1.47;;;1.30;;
13234;SDS011;6683;48.506;9.050;2023-08-31T03:04:40;1.50;;;1.40;;
13234;SDS011;6683;48.506;9.050;2023-08-31T03:07:42;1.90;;;1.60;;
13234;SDS011;6683;48.506;9.050;2023-08-31T03:10:47;3.67;;;1.40;;
13234;SDS011;6683;48.506;9.050;2023-08-31T03:13:49;1.30;;;1.20;;
13234;SDS011;6683;48.506;9.050;2023-08-31T03:16:51;2.37;;;1.20;;
13234;SDS011;6683;48.506;9.050;2023-08-31T03:19:53;2.07;;;1.60;;
13234;SDS011;6683;48.506;9.050;2023-08-31T03:22:55;2.43;;;1.47;;
13234;SDS011;6683;48.506;9.050;2023-08-31T03:25:59;1.47;;;1.33;;
13234;SDS011;6683;48.506;9.050;2023-08-31T03:29:07;2.00;;;1.50;;
13234;SDS011;6683;48.506;9.050;2023-08-31T03:32:09;1.60;;;1.50;;
13234;SDS011;6683;48.506;9.050;2023-08-31T03:35:11;1.50;;;1.40;;
13234;SDS011;6683;48.506;9.050;2023-08-31T03:38:14;2.07;;;1.50;;
13234;SDS011;6683;48.506;9.050;2023-08-31T03:41:17;1.77;;;1.60;;
13234;SDS011;6683;48.506;9.050;2023-08-31T03:44:20;2.93;;;1.60;;
13234;SDS011;6683;48.506;9.050;2023-08-31T03:47:22;1.47;;;1.37;;
13234;SDS011;6683;48.506;9.050;2023-08-31T03:50:24;1.93;;;1.60;;
13234;SDS011;6683;48.506;9.050;2023-08-31T03:53:26;1.50;;;1.40;;
13234;SDS011;6683;48.506;9.050;2023-08-31T03:56:29;2.50;;;1.60;;
13234;SDS011;6683;48.506;9.050;2023-08-31T03:59:31;2.23;;;1.53;;
13234;SDS011;6683;48.506;9.050;2023-08-31T04:02:34;1.60;;;1.50;;
13234;SDS011;6683;48.506;9.050;2023-08-31T04:05:37;2.40;;;1.90;;
13234;SDS011;6683;48.506;9.050;2023-08-31T04:08:39;3.23;;;1.73;;
13234;SDS011;6683;48.506;9.050;2023-08-31T04:11:43;1.97;;;1.50;;
13234;SDS011;6683;48.506;9.050;2023-08-31T04:14:45;2.03;;;1.77;;
13234;SDS011;6683;48.506;9.050;2023-08-31T04:17:47;1.90;;;1.50;;
13234;SDS011;6683;48.506;9.050;2023-08-31T04:20:51;2.13;;;1.80;;
13234;SDS011;6683;48.506;9.050;2023-08-31T04:23:54;1.53;;;1.43;;
13234;SDS011;6683;48.506;9.050;2023-08-31T04:27:01;2.50;;;1.50;;
13234;SDS011;6683;48.506;9.050;2023-08-31T04:30:03;3.13;;;2.17;;
13234;SDS011;6683;48.506;9.050;2023-08-31T04:33:07;2.30;;;1.73;;
13234;SDS011;6683;48.506;9.050;2023-08-31T04:36:09;2.03;;;1.63;;
13234;SDS011;6683;48.506;9.050;2023-08-31T04:39:11;2.03;;;1.83;;
13234;SDS011;6683;48.506;9.050;2023-08-31T04:42:15;1.80;;;1.70;;
13234;SDS011;6683;48.506;9.050;2023-08-31T04:45:18;4.73;;;2.00;;
13234;SDS011;6683;48.506;9.050;2023-08-31T04:48:20;3.27;;;1.80;;
13234;SDS011;6683;48.506;9.050;2023-08-31T04:51:29;3.80;;;1.83;;
13234;SDS011;6683;48.506;9.050;2023-08-31T04:54:32;2.27;;;1.83;;
13234;SDS011;6683;48.506;9.050;2023-08-31T04:57:36;3.33;;;1.87;;
13234;SDS011;6683;48.506;9.050;2023-08-31T05:00:38;2.63;;;1.60;;
13234;SDS011;6683;48.506;9.050;2023-08-31T05:03:40;2.13;;;1.60;;
13234;SDS011;6683;48.506;9.050;2023-08-31T05:06:42;2.30;;;1.57;;
13234;SDS011;6683;48.506;9.050;2023-08-31T05:09:44;2.80;;;1.70;;
13234;SDS011;6683;48.506;9.050;2023-08-31T05:12:48;4.40;;;1.70;;
13234;SDS011;6683;48.506;9.050;2023-08-31T05:15:50;2.33;;;1.90;;
13234;SDS011;6683;48.506;9.050;2023-08-31T05:18:52;3.20;;;2.07;;
13234;SDS011;6683;48.506;9.050;2023-08-31T05:21:55;2.57;;;1.73;;
13234;SDS011;6683;48.506;9.050;2023-08-31T05:24:57;2.53;;;2.00;;
13234;SDS011;6683;48.506;9.050;2023-08-31T05:28:02;2.33;;;1.80;;
13234;SDS011;6683;48.506;9.050;2023-08-31T05:31:04;2.00;;;1.80;;
13234;SDS011;6683;48.506;9.050;2023-08-31T05:34:09;1.90;;;1.70;;
13234;SDS011;6683;48.506;9.050;2023-08-31T05:37:11;2.87;;;1.90;;
13234;SDS011;6683;48.506;9.050;2023-08-31T05:40:14;3.57;;;2.03;;
13234;SDS011;6683;48.506;9.050;2023-08-31T05:43:18;3.40;;;1.77;;
13234;SDS011;6683;48.506;9.050;2023-08-31T05:46:20;4.13;;;2.00;;
13234;SDS011;6683;48.506;9.050;2023-08-31T05:49:22;2.97;;;2.00;;
13234;SDS011;6683;48.506;9.050;2023-08-31T05:52:25;3.13;;;2.17;;
13234;SDS011;6683;48.506;9.050;2023-08-31T05:55:27;3.77;;;2.20;;
13234;SDS011;6683;48.506;9.050;2023-08-31T05:58:31;2.50;;;1.87;;
13234;SDS011;6683;48.506;9.050;2023-08-31T06:01:35;4.70;;;2.97;;
13234;SDS011;6683;48.506;9.050;2023-08-31T06:04:37;3.40;;;2.33;;
13234;SDS011;6683;48.506;9.050;2023-08-31T06:07:39;5.47;;;2.27;;
13234;SDS011;6683;48.506;9.050;2023-08-31T06:10:41;2.40;;;2.20;;
13234;SDS011;6683;48.506;9.050;2023-08-31T06:13:44;4.37;;;2.20;;
13234;SDS011;6683;48.506;9.050;2023-08-31T06:16:46;3.17;;;2.10;;
13234;SDS011;6683;48.506;9.050;2023-08-31T06:19:48;4.40;;;2.00;;
13234;SDS011;6683;48.506;9.050;2023-08-31T06:22:50;2.30;;;1.90;;
13234;SDS011;6683;48.506;9.050;2023-08-31T06:25:53;5.83;;;2.00;;
13234;SDS011;6683;48.506;9.050;2023-08-31T06:28:56;3.47;;;1.90;;
13234;SDS011;6683;48.506;9.050;2023-08-31T06:31:58;4.03;;;2.00;;
13234;SDS011;6683;48.506;9.050;2023-08-31T06:35:01;3.20;;;2.10;;
13234;SDS011;6683;48.506;9.050;2023-08-31T06:38:03;7.77;;;2.57;;
13234;SDS011;6683;48.506;9.050;2023-08-31T06:41:05;2.80;;;2.07;;
13234;SDS011;6683;48.506;9.050;2023-08-31T06:44:10;3.10;;;1.90;;
13234;SDS011;6683;48.506;9.050;2023-08-31T06:47:12;3.47;;;1.80;;
13234;SDS011;6683;48.506;9.050;2023-08-31T06:50:17;2.53;;;2.30;;
13234;SDS011;6683;48.506;9.050;2023-08-31T06:53:19;5.77;;;2.20;;
13234;SDS011;6683;48.506;9.050;2023-08-31T06:56:21;2.97;;;2.17;;
13234;SDS011;6683;48.506;9.050;2023-08-31T06:59:25;2.37;;;2.10;;
13234;SDS011;6683;48.506;9.050;2023-08-31T07:02:27;5.97;;;2.30;;
13234;SDS011;6683;48.506;9.050;2023-08-31T07:05:29;2.73;;;2.10;;
13234;SDS011;6683;48.506;9.050;2023-08-31T07:08:36;5.23;;;2.10;;
13234;SDS011;6683;48.506;9.050;2023-08-31T07:11:40;2.90;;;2.53;;
13234;SDS011;6683;48.506;9.050;2023-08-31T07:14:44;3.30;;;2.20;;
13234;SDS011;6683;48.506;9.050;2023-08-31T07:17:46;5.37;;;2.40;;
13234;SDS011;6683;48.506;9.050;2023-08-31T07:20:49;3.53;;;1.90;;
13234;SDS011;6683;48.506;9.050;2023-08-31T07:23:51;2.67;;;2.13;;
13234;SDS011;6683;48.506;9.050;2023-08-31T07:26:54;2.70;;;1.73;;
13234;SDS011;6683;48.506;9.050;2023-08-31T07:29:57;4.80;;;2.23;;
13234;SDS011;6683;48.506;9.050;2023-08-31T07:32:59;2.47;;;1.80;;
13234;SDS011;6683;48.506;9.050;2023-08-31T07:36:03;2.40;;;1.80;;
13234;SDS011;6683;48.506;9.050;2023-08-31T07:39:06;3.57;;;1.50;;
13234;SDS011;6683;48.506;9.050;2023-08-31T07:42:08;3.30;;;1.70;;
13234;SDS011;6683;48.506;9.050;2023-08-31T07:45:12;3.37;;;1.87;;
13234;SDS011;6683;48.506;9.050;2023-08-31T07:48:14;2.87;;;1.70;;
13234;SDS011;6683;48.506;9.050;2023-08-31T07:51:16;2.93;;;2.03;;
13234;SDS011;6683;48.506;9.050;2023-08-31T07:54:23;2.30;;;1.83;;
13234;SDS011;6683;48.506;9.050;2023-08-31T07:57:26;3.43;;;1.80;;
13234;SDS011;6683;48.506;9.050;2023-08-31T08:00:29;2.47;;;1.70;;
13234;SDS011;6683;48.506;9.050;2023-08-31T08:03:31;3.43;;;1.73;;
13234;SDS011;6683;48.506;9.050;2023-08-31T08:06:33;2.10;;;1.50;;
13234;SDS011;6683;48.506;9.050;2023-08-31T08:09:35;3.27;;;1.90;;
13234;SDS011;6683;48.506;9.050;2023-08-31T08:12:38;3.03;;;2.03;;
13234;SDS011;6683;48.506;9.050;2023-08-31T08:15:42;1.53;;;1.30;;
13234;SDS011;6683;48.506;9.050;2023-08-31T08:18:46;2.33;;;1.40;;
13234;SDS011;6683;48.506;9.050;2023-08-31T08:21:48;2.77;;;1.40;;
13234;SDS011;6683;48.506;9.050;2023-08-31T08:24:50;2.90;;;1.50;;
13234;SDS011;6683;48.506;9.050;2023-08-31T08:27:53;3.17;;;1.90;;
13234;SDS011;6683;48.506;9.050;2023-08-31T08:30:57;2.83;;;1.60;;
13234;SDS011;6683;48.506;9.050;2023-08-31T08:34:01;2.83;;;1.60;;
13234;SDS011;6683;48.506;9.050;2023-08-31T08:37:04;3.07;;;1.53;;
13234;SDS011;6683;48.506;9.050;2023-08-31T08:40:07;3.53;;;1.73;;
13234;SDS011;6683;48.506;9.050;2023-08-31T08:43:11;1.87;;;1.30;;
13234;SDS011;6683;48.506;9.050;2023-08-31T08:46:16;2.40;;;1.43;;
13234;SDS011;6683;48.506;9.050;2023-08-31T08:49:18;3.27;;;1.30;;
13234;SDS011;6683;48.506;9.050;2023-08-31T08:52:21;2.47;;;1.57;;
13234;SDS011;6683;48.506;9.050;2023-08-31T08:55:24;2.63;;;1.80;;
13234;SDS011;6683;48.506;9.050;2023-08-31T08:58:26;2.13;;;1.20;;
13234;SDS011;6683;48.506;9.050;2023-08-31T09:01:30;1.93;;;1.53;;
13234;SDS011;6683;48.506;9.050;2023-08-31T09:04:32;2.83;;;1.87;;
13234;SDS011;6683;48.506;9.050;2023-08-31T09:07:34;2.57;;;1.30;;
13234;SDS011;6683;48.506;9.050;2023-08-31T09:10:38;3.47;;;1.67;;
13234;SDS011;6683;48.506;9.050;2023-08-31T09:13:41;4.17;;;1.67;;
13234;SDS011;6683;48.506;9.050;2023-08-31T09:16:45;2.53;;;1.47;;
13234;SDS011;6683;48.506;9.050;2023-08-31T09:19:57;3.93;;;1.60;;
13234;SDS011;6683;48.506;9.050;2023-08-31T09:23:00;3.00;;;1.50;;
13234;SDS011;6683;48.506;9.050;2023-08-31T09:26:02;2.63;;;1.43;;
13234;SDS011;6683;48.506;9.050;2023-08-31T09:29:06;2.60;;;1.47;;
13234;SDS011;6683;48.506;9.050;2023-08-31T09:32:10;2.30;;;1.37;;
13234;SDS011;6683;48.506;9.050;2023-08-31T09:35:18;2.93;;;1.40;;
13234;SDS011;6683;48.506;9.050;2023-08-31T09:38:20;3.00;;;1.30;;
13234;SDS011;6683;48.506;9.050;2023-08-31T09:41:23;4.67;;;1.70;;
13234;SDS011;6683;48.506;9.050;2023-08-31T09:44:25;1.53;;;1.20;;
13234;SDS011;6683;48.506;9.050;2023-08-31T09:47:28;3.92;;;1.52;;
13234;SDS011;6683;48.506;9.050;2023-08-31T09:50:32;2.37;;;1.50;;
13234;SDS011;6683;48.506;9.050;2023-08-31T09:53:35;2.23;;;1.33;;
13234;SDS011;6683;48.506;9.050;2023-08-31T09:56:38;2.77;;;1.40;;
13234;SDS011;6683;48.506;9.050;2023-08-31T09:59:44;3.03;;;1.50;;
13234;SDS011;6683;48.506;9.050;2023-08-31T10:02:47;2.67;;;1.33;;
13234;SDS011;6683;48.506;9.050;2023-08-31T10:05:51;2.30;;;1.30;;
13234;SDS011;6683;48.506;9.050;2023-08-31T10:08:53;1.92;;;1.27;;
13234;SDS011;6683;48.506;9.050;2023-08-31T10:11:56;2.00;;;1.30;;
13234;SDS011;6683;48.506;9.050;2023-08-31T10:14:58;1.70;;;1.33;;
13234;SDS011;6683;48.506;9.050;2023-08-31T10:18:02;2.05;;;1.25;;
13234;SDS011;6683;48.506;9.050;2023-08-31T10:21:06;2.10;;;1.47;;
13234;SDS011;6683;48.506;9.050;2023-08-31T10:24:08;2.35;;;1.45;;
13234;SDS011;6683;48.506;9.050;2023-08-31T10:27:17;3.80;;;2.00;;
13234;SDS011;6683;48.506;9.050;2023-08-31T10:30:24;3.72;;;1.40;;
13234;SDS011;6683;48.506;9.050;2023-08-31T10:33:28;2.93;;;1.60;;
13234;SDS011;6683;48.506;9.050;2023-08-31T10:36:37;2.25;;;1.55;;
13234;SDS011;6683;48.506;9.050;2023-08-31T10:39:40;2.10;;;1.30;;
13234;SDS011;6683;48.506;9.050;2023-08-31T10:42:46;2.65;;;1.35;;
13234;SDS011;6683;48.506;9.050;2023-08-31T10:46:14;2.20;;;1.58;;
13234;SDS011;6683;48.506;9.050;2023-08-31T10:49:20;2.90;;;1.30;;
13234;SDS011;6683;48.506;9.050;2023-08-31T10:52:23;1.75;;;1.30;;
13234;SDS011;6683;48.506;9.050;2023-08-31T10:55:25;3.78;;;1.40;;
13234;SDS011;6683;48.506;9.050;2023-08-31T10:58:33;2.97;;;1.40;;
13234;SDS011;6683;48.506;9.050;2023-08-31T11:01:54;2.58;;;1.48;;
13234;SDS011;6683;48.506;9.050;2023-08-31T11:05:01;1.85;;;1.30;;
13234;SDS011;6683;48.506;9.050;2023-08-31T11:08:08;2.13;;;1.33;;
13234;SDS011;6683;48.506;9.050;2023-08-31T11:11:10;2.20;;;1.30;;
13234;SDS011;6683;48.506;9.050;2023-08-31T11:14:12;2.33;;;1.30;;
13234;SDS011;6683;48.506;9.050;2023-08-31T11:17:16;2.83;;;1.48;;
13234;SDS011;6683;48.506;9.050;2023-08-31T11:20:20;2.72;;;1.38;;
13234;SDS011;6683;48.506;9.050;2023-08-31T11:23:27;5.88;;;1.75;;
13234;SDS011;6683;48.506;9.050;2023-08-31T11:26:31;2.90;;;1.40;;
13234;SDS011;6683;48.506;9.050;2023-08-31T11:29:36;2.38;;;1.40;;
13234;SDS011;6683;48.506;9.050;2023-08-31T11:32:43;2.95;;;1.63;;
13234;SDS011;6683;48.506;9.050;2023-08-31T11:35:56;1.58;;;1.10;;
13234;SDS011;6683;48.506;9.050;2023-08-31T11:39:00;3.42;;;1.60;;
13234;SDS011;6683;48.506;9.050;2023-08-31T11:42:03;3.30;;;1.23;;
13234;SDS011;6683;48.506;9.050;2023-08-31T11:45:06;1.65;;;1.20;;
13234;SDS011;6683;48.506;9.050;2023-08-31T11:48:11;2.63;;;1.38;;
13234;SDS011;6683;48.506;9.050;2023-08-31T11:51:18;3.03;;;1.52;;
13234;SDS011;6683;48.506;9.050;2023-08-31T11:54:27;3.15;;;1.50;;
13234;SDS011;6683;48.506;9.050;2023-08-31T11:57:29;2.00;;;1.40;;
13234;SDS011;6683;48.506;9.050;2023-08-31T12:00:31;2.15;;;1.55;;
13234;SDS011;6683;48.506;9.050;2023-08-31T12:03:41;1.60;;;1.23;;
13234;SDS011;6683;48.506;9.050;2023-08-31T12:06:47;2.72;;;1.40;;
13234;SDS011;6683;48.506;9.050;2023-08-31T12:09:51;2.67;;;1.40;;
13234;SDS011;6683;48.506;9.050;2023-08-31T12:12:53;2.45;;;1.20;;
13234;SDS011;6683;48.506;9.050;2023-08-31T12:16:11;1.98;;;1.23;;
13234;SDS011;6683;48.506;9.050;2023-08-31T12:19:14;2.58;;;1.60;;
13234;SDS011;6683;48.506;9.050;2023-08-31T12:22:18;3.50;;;1.42;;
13234;SDS011;6683;48.506;9.050;2023-08-31T12:25:20;1.85;;;1.30;;
13234;SDS011;6683;48.506;9.050;2023-08-31T12:28:23;1.90;;;1.27;;
13234;SDS011;6683;48.506;9.050;2023-08-31T12:31:25;1.80;;;1.20;;
13234;SDS011;6683;48.506;9.050;2023-08-31T12:34:28;3.72;;;1.98;;
13234;SDS011;6683;48.506;9.050;2023-08-31T12:37:33;1.95;;;1.15;;
13234;SDS011;6683;48.506;9.050;2023-08-31T12:40:35;2.47;;;1.60;;
13234;SDS011;6683;48.506;9.050;2023-08-31T12:43:38;2.00;;;1.48;;
13234;SDS011;6683;48.506;9.050;2023-08-31T12:46:40;2.28;;;1.20;;
13234;SDS011;6683;48.506;9.050;2023-08-31T12:49:43;2.83;;;1.45;;
13234;SDS011;6683;48.506;9.050;2023-08-31T12:52:47;2.35;;;1.30;;
13234;SDS011;6683;48.506;9.050;2023-08-31T12:55:49;2.33;;;1.30;;
13234;SDS011;6683;48.506;9.050;2023-08-31T12:58:51;1.75;;;1.38;;
13234;SDS011;6683;48.506;9.050;2023-08-31T13:01:54;2.53;;;1.77;;
13234;SDS011;6683;48.506;9.050;2023-08-31T13:05:00;1.60;;;1.20;;
13234;SDS011;6683;48.506;9.050;2023-08-31T13:08:11;2.10;;;1.50;;
13234;SDS011;6683;48.506;9.050;2023-08-31T13:11:16;4.38;;;2.60;;
13234;SDS011;6683;48.506;9.050;2023-08-31T13:14:23;2.67;;;1.50;;
13234;SDS011;6683;48.506;9.050;2023-08-31T13:17:26;2.05;;;1.35;;
13234;SDS011;6683;48.506;9.050;2023-08-31T13:20:31;2.78;;;1.40;;
13234;SDS011;6683;48.506;9.050;2023-08-31T13:23:35;3.20;;;1.45;;
13234;SDS011;6683;48.506;9.050;2023-08-31T13:26:38;3.63;;;1.60;;
13234;SDS011;6683;48.506;9.050;2023-08-31T13:29:41;3.53;;;1.80;;
13234;SDS011;6683;48.506;9.050;2023-08-31T13:32:44;6.05;;;1.55;;
13234;SDS011;6683;48.506;9.050;2023-08-31T13:35:47;2.40;;;1.50;;
13234;SDS011;6683;48.506;9.050;2023-08-31T13:38:50;4.70;;;1.70;;
13234;SDS011;6683;48.506;9.050;2023-08-31T13:41:55;2.22;;;1.60;;
13234;SDS011;6683;48.506;9.050;2023-08-31T13:45:00;3.05;;;1.60;;
13234;SDS011;6683;48.506;9.050;2023-08-31T13:48:03;2.65;;;1.42;;
13234;SDS011;6683;48.506;9.050;2023-08-31T13:51:07;2.20;;;1.88;;
13234;SDS011;6683;48.506;9.050;2023-08-31T13:54:11;3.60;;;1.50;;
13234;SDS011;6683;48.506;9.050;2023-08-31T13:57:16;2.55;;;1.52;;
13234;SDS011;6683;48.506;9.050;2023-08-31T14:00:18;3.70;;;1.40;;
13234;SDS011;6683;48.506;9.050;2023-08-31T14:03:21;3.25;;;1.38;;
13234;SDS011;6683;48.506;9.050;2023-08-31T14:06:23;3.60;;;1.60;;
13234;SDS011;6683;48.506;9.050;2023-08-31T14:09:27;2.38;;;1.48;;
13234;SDS011;6683;48.506;9.050;2023-08-31T14:12:29;2.72;;;1.52;;
13234;SDS011;6683;48.506;9.050;2023-08-31T14:15:32;1.83;;;1.15;;
13234;SDS011;6683;48.506;9.050;2023-08-31T14:18:34;1.95;;;1.30;;
13234;SDS011;6683;48.506;9.050;2023-08-31T14:21:36;2.72;;;1.60;;
13234;SDS011;6683;48.506;9.050;2023-08-31T14:24:40;1.90;;;1.17;;
13234;SDS011;6683;48.506;9.050;2023-08-31T14:27:42;4.80;;;1.52;;
13234;SDS011;6683;48.506;9.050;2023-08-31T14:30:44;3.85;;;1.60;;
13234;SDS011;6683;48.506;9.050;2023-08-31T14:33:46;2.03;;;1.20;;
13234;SDS011;6683;48.506;9.050;2023-08-31T14:36:52;2.63;;;1.50;;
13234;SDS011;6683;48.506;9.050;2023-08-31T14:39:58;2.13;;;1.48;;
